sensor_id;sensor_type;location;lat;lon;timestamp;pressure;altitude;pressure_sealevel;temperature;humidity
19748;BME280;10032;51.386;12.516;2024-03-25T00:00:43;98681.44;;;6.88;100.00
19748;BME280;10032;51.386;12.516;2024-03-25T00:03:08;98682.78;;;6.85;100.00
19748;BME280;10032;51.386;12.516;2024-03-25T00:05:34;98684.13;;;6.83;100.00
19748;BME280;10032;51.386;12.516;2024-03-25T00:07:59;98683.25;;;6.77;100.00
19748;BME280;10032;51.386;12.516;2024-03-25T00:10:25;98691.31;;;6.72;100.00
19748;BME280;10032;51.386;12.516;2024-03-25T00:12:50;98701.78;;;6.69;100.00
19748;BME280;10032;51.386;12.516;2024-03-25T00:15:20;98697.44;;;6.63;100.00
19748;BME280;10032;51.386;12.516;2024-03-25T00:17:48;98700.38;;;6.61;100.00
19748;BME280;10032;51.386;12.516;2024-03-25T00:20:13;98696.63;;;6.57;100.00
19748;BME280;10032;51.386;12.516;2024-03-25T00:22:40;98706.06;;;6.60;100.00
19748;BME280;10032;51.386;12.516;2024-03-25T00:25:07;98689.09;;;6.59;100.00
19748;BME280;10032;51.386;12.516;2024-03-25T00:27:32;98700.09;;;6.58;100.00
19748;BME280;10032;51.386;12.516;2024-03-25T00:29:58;98703.38;;;6.60;100.00
19748;BME280;10032;51.386;12.516;2024-03-25T00:32:23;98703.06;;;6.61;100.00
19748;BME280;10032;51.386;12.516;2024-03-25T00:34:49;98701.75;;;6.64;100.00
19748;BME280;10032;51.386;12.516;2024-03-25T00:37:14;98696.66;;;6.67;100.00
19748;BME280;10032;51.386;12.516;2024-03-25T00:39:40;98699.38;;;6.72;100.00
19748;BME280;10032;51.386;12.516;2024-03-25T00:42:05;98707.41;;;6.67;100.00
19748;BME280;10032;51.386;12.516;2024-03-25T00:44:31;98709.88;;;6.74;100.00
19748;BME280;10032;51.386;12.516;2024-03-25T00:46:56;98708.03;;;6.74;100.00
19748;BME280;10032;51.386;12.516;2024-03-25T00:49:22;98704.78;;;6.77;100.00
19748;BME280;10032;51.386;12.516;2024-03-25T00:51:47;98700.78;;;6.80;100.00
19748;BME280;10032;51.386;12.516;2024-03-25T00:54:13;98705.66;;;6.83;100.00
19748;BME280;10032;51.386;12.516;2024-03-25T00:56:38;98703.50;;;6.85;100.00
19748;BME280;10032;51.386;12.516;2024-03-25T00:59:04;98702.69;;;6.84;100.00
19748;BME280;10032;51.386;12.516;2024-03-25T01:01:31;98703.50;;;6.85;100.00
19748;BME280;10032;51.386;12.516;2024-03-25T01:03:57;98712.91;;;6.87;100.00
19748;BME280;10032;51.386;12.516;2024-03-25T01:06:22;98715.63;;;6.87;100.00
19748;BME280;10032;51.386;12.516;2024-03-25T01:08:48;98711.84;;;6.88;100.00
19748;BME280;10032;51.386;12.516;2024-03-25T01:11:14;98707.00;;;6.85;100.00
19748;BME280;10032;51.386;12.516;2024-03-25T01:13:40;98711.31;;;6.86;100.00
19748;BME280;10032;51.386;12.516;2024-03-25T01:16:07;98715.63;;;6.87;100.00
19748;BME280;10032;51.386;12.516;2024-03-25T01:18:32;98717.81;;;6.90;100.00
19748;BME280;10032;51.386;12.516;2024-03-25T01:20:58;98718.31;;;6.87;100.00
19748;BME280;10032;51.386;12.516;2024-03-25T01:23:23;98720.47;;;6.85;100.00
19748;BME280;10032;51.386;12.516;2024-03-25T01:25:48;98718.84;;;6.84;100.00
19748;BME280;10032;51.386;12.516;2024-03-25T01:28:14;98722.59;;;6.83;100.00
19748;BME280;10032;51.386;12.516;2024-03-25T01:30:39;98725.28;;;6.83;100.00
19748;BME280;10032;51.386;12.516;2024-03-25T01:33:05;98726.94;;;6.89;100.00
19748;BME280;10032;51.386;12.516;2024-03-25T01:35:31;98732.34;;;6.89;100.00
19748;BME280;10032;51.386;12.516;2024-03-25T01:37:56;98726.94;;;6.89;100.00
19748;BME280;10032;51.386;12.516;2024-03-25T01:40:22;98733.13;;;6.90;100.00
19748;BME280;10032;51.386;12.516;2024-03-25T01:45:23;98740.13;;;6.91;100.00
19748;BME280;10032;51.386;12.516;2024-03-25T01:47:49;98735.56;;;6.91;100.00
19748;BME280;10032;51.386;12.516;2024-03-25T01:50:15;98749.31;;;6.95;100.00
19748;BME280;10032;51.386;12.516;2024-03-25T01:52:41;98748.53;;;6.94;100.00
19748;BME280;10032;51.386;12.516;2024-03-25T01:55:09;98747.16;;;6.92;100.00
19748;BME280;10032;51.386;12.516;2024-03-25T01:57:38;98752.53;;;6.92;100.00
19748;BME280;10032;51.386;12.516;2024-03-25T02:00:05;98750.09;;;6.90;100.00
19748;BME280;10032;51.386;12.516;2024-03-25T02:02:31;98750.34;;;6.89;100.00
19748;BME280;10032;51.386;12.516;2024-03-25T02:04:58;98759.78;;;6.91;100.00
19748;BME280;10032;51.386;12.516;2024-03-25T02:07:25;98767.38;;;6.94;100.00
19748;BME280;10032;51.386;12.516;2024-03-25T02:09:52;98765.19;;;6.91;100.00
19748;BME280;10032;51.386;12.516;2024-03-25T02:12:17;98776.47;;;6.93;100.00
19748;BME280;10032;51.386;12.516;2024-03-25T02:14:43;98762.47;;;6.91;100.00
19748;BME280;10032;51.386;12.516;2024-03-25T02:17:09;98764.09;;;6.92;100.00
19748;BME280;10032;51.386;12.516;2024-03-25T02:19:36;98773.81;;;6.98;100.00
19748;BME280;10032;51.386;12.516;2024-03-25T02:22:02;98770.09;;;6.99;100.00
19748;BME280;10032;51.386;12.516;2024-03-25T02:24:29;98781.13;;;7.03;100.00
19748;BME280;10032;51.386;12.516;2024-03-25T02:26:56;98780.28;;;6.97;100.00
19748;BME280;10032;51.386;12.516;2024-03-25T02:29:21;98781.88;;;6.93;100.00
19748;BME280;10032;51.386;12.516;2024-03-25T02:31:47;98782.16;;;6.92;100.00
19748;BME280;10032;51.386;12.516;2024-03-25T02:34:13;98786.22;;;6.94;100.00
19748;BME280;10032;51.386;12.516;2024-03-25T02:36:38;98786.72;;;6.91;100.00
19748;BME280;10032;51.386;12.516;2024-03-25T02:39:04;98789.69;;;6.95;100.00
19748;BME280;10032;51.386;12.516;2024-03-25T02:41:30;98796.94;;;6.89;100.00
19748;BME280;10032;51.386;12.516;2024-03-25T02:43:56;98802.31;;;6.89;100.00
19748;BME280;10032;51.386;12.516;2024-03-25T02:46:22;98802.31;;;6.89;100.00
19748;BME280;10032;51.386;12.516;2024-03-25T02:48:48;98804.44;;;6.87;100.00
19748;BME280;10032;51.386;12.516;2024-03-25T02:51:13;98806.59;;;6.85;100.00
19748;BME280;10032;51.386;12.516;2024-03-25T02:53:38;98805.22;;;6.83;100.00
19748;BME280;10032;51.386;12.516;2024-03-25T02:56:04;98814.09;;;6.78;100.00
19748;BME280;10032;51.386;12.516;2024-03-25T02:58:29;98816.78;;;6.78;100.00
19748;BME280;10032;51.386;12.516;2024-03-25T03:00:55;98818.06;;;6.71;100.00
19748;BME280;10032;51.386;12.516;2024-03-25T03:03:20;98822.09;;;6.68;100.00
19748;BME280;10032;51.386;12.516;2024-03-25T03:05:45;98831.19;;;6.67;100.00
19748;BME280;10032;51.386;12.516;2024-03-25T03:08:11;98840.59;;;6.65;100.00
19748;BME280;10032;51.386;12.516;2024-03-25T03:10:36;98838.19;;;6.63;100.00
19748;BME280;10032;51.386;12.516;2024-03-25T03:13:02;98846.75;;;6.60;100.00
19748;BME280;10032;51.386;12.516;2024-03-25T03:15:27;98836.25;;;6.59;100.00
19748;BME280;10032;51.386;12.516;2024-03-25T03:17:52;98845.97;;;6.60;100.00
19748;BME280;10032;51.386;12.516;2024-03-25T03:20:18;98844.06;;;6.60;100.00
19748;BME280;10032;51.386;12.516;2024-03-25T03:22:44;98847.31;;;6.62;100.00
19748;BME280;10032;51.386;12.516;2024-03-25T03:25:09;98855.94;;;6.64;100.00
19748;BME280;10032;51.386;12.516;2024-03-25T03:27:35;98850.03;;;6.67;100.00
19748;BME280;10032;51.386;12.516;2024-03-25T03:30:00;98863.50;;;6.67;100.00
19748;BME280;10032;51.386;12.516;2024-03-25T03:32:26;98868.31;;;6.65;100.00
19748;BME280;10032;51.386;12.516;2024-03-25T03:34:51;98873.22;;;6.68;100.00
19748;BME280;10032;51.386;12.516;2024-03-25T03:37:17;98872.63;;;6.66;100.00
19748;BME280;10032;51.386;12.516;2024-03-25T03:39:42;98872.63;;;6.66;100.00
19748;BME280;10032;51.386;12.516;2024-03-25T03:42:08;98873.75;;;6.70;100.00
19748;BME280;10032;51.386;12.516;2024-03-25T03:44:33;98883.44;;;6.71;100.00
19748;BME280;10032;51.386;12.516;2024-03-25T03:46:59;98890.19;;;6.74;100.00
19748;BME280;10032;51.386;12.516;2024-03-25T03:49:24;98893.47;;;6.76;100.00
19748;BME280;10032;51.386;12.516;2024-03-25T03:51:49;98897.19;;;6.75;100.00
19748;BME280;10032;51.386;12.516;2024-03-25T03:54:15;98904.47;;;6.74;100.00
19748;BME280;10032;51.386;12.516;2024-03-25T03:56:40;98906.88;;;6.71;100.00
19748;BME280;10032;51.386;12.516;2024-03-25T03:59:06;98908.19;;;6.68;100.00
19748;BME280;10032;51.386;12.516;2024-03-25T04:01:31;98908.69;;;6.65;100.00
19748;BME280;10032;51.386;12.516;2024-03-25T04:03:56;98920.81;;;6.68;100.00
19748;BME280;10032;51.386;12.516;2024-03-25T04:06:22;98915.19;;;6.69;100.00
19748;BME280;10032;51.386;12.516;2024-03-25T04:08:47;98920.56;;;6.69;100.00
19748;BME280;10032;51.386;12.516;2024-03-25T04:11:12;98918.63;;;6.65;100.00
19748;BME280;10032;51.386;12.516;2024-03-25T04:13:38;98921.06;;;6.66;100.00
19748;BME280;10032;51.386;12.516;2024-03-25T04:16:05;98915.69;;;6.66;100.00
19748;BME280;10032;51.386;12.516;2024-03-25T04:18:32;98925.09;;;6.64;100.00
19748;BME280;10032;51.386;12.516;2024-03-25T04:20:57;98922.16;;;6.65;100.00
19748;BME280;10032;51.386;12.516;2024-03-25T04:23:23;98930.22;;;6.65;100.00
19748;BME280;10032;51.386;12.516;2024-03-25T04:25:49;98929.72;;;6.68;100.00
19748;BME280;10032;51.386;12.516;2024-03-25T04:28:15;98933.44;;;6.67;100.00
19748;BME280;10032;51.386;12.516;2024-03-25T04:30:40;98936.97;;;6.68;100.00
19748;BME280;10032;51.386;12.516;2024-03-25T04:33:06;98933.97;;;6.64;100.00
19748;BME280;10032;51.386;12.516;2024-03-25T04:35:32;98940.72;;;6.67;100.00
19748;BME280;10032;51.386;12.516;2024-03-25T04:37:57;98946.66;;;6.69;100.00
19748;BME280;10032;51.386;12.516;2024-03-25T04:40:23;98939.91;;;6.66;100.00
19748;BME280;10032;51.386;12.516;2024-03-25T04:42:48;98941.53;;;6.67;100.00
19748;BME280;10032;51.386;12.516;2024-03-25T04:45:14;98947.94;;;6.61;100.00
19748;BME280;10032;51.386;12.516;2024-03-25T04:47:40;98954.97;;;6.62;100.00
19748;BME280;10032;51.386;12.516;2024-03-25T04:50:06;98957.13;;;6.65;100.00
19748;BME280;10032;51.386;12.516;2024-03-25T04:52:32;98963.03;;;6.62;100.00
19748;BME280;10032;51.386;12.516;2024-03-25T04:54:57;98963.31;;;6.66;100.00
19748;BME280;10032;51.386;12.516;2024-03-25T04:57:23;98961.44;;;6.66;100.00
19748;BME280;10032;51.386;12.516;2024-03-25T04:59:49;98967.06;;;6.65;100.00
19748;BME280;10032;51.386;12.516;2024-03-25T05:02:14;98972.19;;;6.66;100.00
19748;BME280;10032;51.386;12.516;2024-03-25T05:04:40;98978.16;;;6.68;100.00
19748;BME280;10032;51.386;12.516;2024-03-25T05:07:05;98971.69;;;6.69;100.00
19748;BME280;10032;51.386;12.516;2024-03-25T05:09:31;98987.03;;;6.69;100.00
19748;BME280;10032;51.386;12.516;2024-03-25T05:11:56;98988.41;;;6.71;100.00
19748;BME280;10032;51.386;12.516;2024-03-25T05:14:21;98990.53;;;6.69;100.00
19748;BME280;10032;51.386;12.516;2024-03-25T05:16:47;98989.97;;;6.67;100.00
19748;BME280;10032;51.386;12.516;2024-03-25T05:19:14;98987.78;;;6.64;100.00
19748;BME280;10032;51.386;12.516;2024-03-25T05:21:39;98993.97;;;6.65;100.00
19748;BME280;10032;51.386;12.516;2024-03-25T05:24:05;98999.63;;;6.63;100.00
19748;BME280;10032;51.386;12.516;2024-03-25T05:26:30;99002.03;;;6.65;100.00
19748;BME280;10032;51.386;12.516;2024-03-25T05:28:56;99002.81;;;6.60;100.00
19748;BME280;10032;51.386;12.516;2024-03-25T05:31:22;99002.31;;;6.63;100.00
19748;BME280;10032;51.386;12.516;2024-03-25T05:33:47;99012.81;;;6.65;100.00
19748;BME280;10032;51.386;12.516;2024-03-25T05:36:13;99006.88;;;6.63;100.00
19748;BME280;10032;51.386;12.516;2024-03-25T05:38:39;99007.19;;;6.66;100.00
19748;BME280;10032;51.386;12.516;2024-03-25T05:41:04;99009.31;;;6.64;100.00
19748;BME280;10032;51.386;12.516;2024-03-25T05:43:30;99005.88;;;6.69;100.00
19748;BME280;10032;51.386;12.516;2024-03-25T05:45:56;99018.31;;;6.75;100.00
19748;BME280;10032;51.386;12.516;2024-03-25T05:48:24;99017.56;;;6.79;100.00
19748;BME280;10032;51.386;12.516;2024-03-25T05:51:03;99031.56;;;6.81;100.00
19748;BME280;10032;51.386;12.516;2024-03-25T05:53:30;99029.94;;;6.80;100.00
19748;BME280;10032;51.386;12.516;2024-03-25T05:55:56;99025.69;;;6.84;100.00
19748;BME280;10032;51.386;12.516;2024-03-25T05:58:22;99036.47;;;6.84;100.00
19748;BME280;10032;51.386;12.516;2024-03-25T06:00:51;99043.47;;;6.85;100.00
19748;BME280;10032;51.386;12.516;2024-03-25T06:03:16;99038.34;;;6.84;100.00
19748;BME280;10032;51.386;12.516;2024-03-25T06:05:44;99046.72;;;6.87;100.00
19748;BME280;10032;51.386;12.516;2024-03-25T06:08:10;99036.78;;;6.88;100.00
19748;BME280;10032;51.386;12.516;2024-03-25T06:10:45;99048.91;;;6.90;100.00
19748;BME280;10032;51.386;12.516;2024-03-25T06:13:11;99040.06;;;6.95;100.00
19748;BME280;10032;51.386;12.516;2024-03-25T06:15:36;99044.94;;;6.98;100.00
19748;BME280;10032;51.386;12.516;2024-03-25T06:18:02;99060.88;;;7.04;100.00
19748;BME280;10032;51.386;12.516;2024-03-25T06:20:27;99054.75;;;7.09;100.00
19748;BME280;10032;51.386;12.516;2024-03-25T06:22:52;99060.63;;;7.06;100.00
19748;BME280;10032;51.386;12.516;2024-03-25T06:25:18;99060.94;;;7.09;100.00
19748;BME280;10032;51.386;12.516;2024-03-25T06:27:43;99069.59;;;7.11;100.00
19748;BME280;10032;51.386;12.516;2024-03-25T06:30:10;99070.97;;;7.14;100.00
19748;BME280;10032;51.386;12.516;2024-03-25T06:32:54;99078.34;;;7.23;100.00
19748;BME280;10032;51.386;12.516;2024-03-25T06:35:38;99087.50;;;7.22;100.00
19748;BME280;10032;51.386;12.516;2024-03-25T06:38:03;99088.03;;;7.24;100.00
19748;BME280;10032;51.386;12.516;2024-03-25T06:40:28;99093.47;;;7.29;100.00
19748;BME280;10032;51.386;12.516;2024-03-25T06:42:54;99096.41;;;7.28;100.00
19748;BME280;10032;51.386;12.516;2024-03-25T06:45:19;99095.09;;;7.30;100.00
19748;BME280;10032;51.386;12.516;2024-03-25T06:47:45;99098.38;;;7.32;100.00
19748;BME280;10032;51.386;12.516;2024-03-25T06:50:10;99099.69;;;7.30;100.00
19748;BME280;10032;51.386;12.516;2024-03-25T06:52:35;99106.69;;;7.31;100.00
19748;BME280;10032;51.386;12.516;2024-03-25T06:55:01;99108.06;;;7.33;100.00
19748;BME280;10032;51.386;12.516;2024-03-25T06:57:26;99104.34;;;7.39;100.00
19748;BME280;10032;51.386;12.516;2024-03-25T06:59:51;99109.19;;;7.37;100.00
19748;BME280;10032;51.386;12.516;2024-03-25T07:02:17;99113.03;;;7.46;100.00
19748;BME280;10032;51.386;12.516;2024-03-25T07:04:42;99109.84;;;7.49;100.00
19748;BME280;10032;51.386;12.516;2024-03-25T07:07:08;99119.06;;;7.53;100.00
19748;BME280;10032;51.386;12.516;2024-03-25T07:09:33;99122.88;;;7.57;100.00
19748;BME280;10032;51.386;12.516;2024-03-25T07:11:59;99130.47;;;7.65;100.00
19748;BME280;10032;51.386;12.516;2024-03-25T07:14:24;99137.44;;;7.61;100.00
19748;BME280;10032;51.386;12.516;2024-03-25T07:16:50;99138.03;;;7.63;100.00
19748;BME280;10032;51.386;12.516;2024-03-25T07:19:15;99139.09;;;7.67;100.00
19748;BME280;10032;51.386;12.516;2024-03-25T07:21:41;99138.91;;;7.74;100.00
19748;BME280;10032;51.386;12.516;2024-03-25T07:24:06;99144.59;;;7.77;100.00
19748;BME280;10032;51.386;12.516;2024-03-25T07:26:32;99145.66;;;7.76;100.00
19748;BME280;10032;51.386;12.516;2024-03-25T07:28:57;99147.59;;;7.81;100.00
19748;BME280;10032;51.386;12.516;2024-03-25T07:31:23;99144.28;;;8.00;100.00
19748;BME280;10032;51.386;12.516;2024-03-25T07:33:48;99149.72;;;8.05;100.00
19748;BME280;10032;51.386;12.516;2024-03-25T07:36:13;99150.78;;;8.09;100.00
19748;BME280;10032;51.386;12.516;2024-03-25T07:38:39;99162.16;;;8.11;100.00
19748;BME280;10032;51.386;12.516;2024-03-25T07:41:05;99155.34;;;8.04;100.00
19748;BME280;10032;51.386;12.516;2024-03-25T07:43:30;99158.31;;;8.02;100.00
19748;BME280;10032;51.386;12.516;2024-03-25T07:45:55;99165.41;;;8.13;100.00
19748;BME280;10032;51.386;12.516;2024-03-25T07:48:21;99159.84;;;8.20;100.00
19748;BME280;10032;51.386;12.516;2024-03-25T07:50:46;99169.28;;;8.22;100.00
19748;BME280;10032;51.386;12.516;2024-03-25T07:53:11;99166.06;;;8.25;100.00
19748;BME280;10032;51.386;12.516;2024-03-25T07:55:37;99174.47;;;8.29;100.00
19748;BME280;10032;51.386;12.516;2024-03-25T07:58:03;99175.84;;;8.36;100.00
19748;BME280;10032;51.386;12.516;2024-03-25T08:00:28;99178.13;;;8.49;100.00
19748;BME280;10032;51.386;12.516;2024-03-25T08:02:54;99176.91;;;8.72;100.00
19748;BME280;10032;51.386;12.516;2024-03-25T08:05:19;99179.97;;;8.85;100.00
19748;BME280;10032;51.386;12.516;2024-03-25T08:07:47;99180.25;;;8.89;100.00
19748;BME280;10032;51.386;12.516;2024-03-25T08:10:13;99185.41;;;8.90;100.00
19748;BME280;10032;51.386;12.516;2024-03-25T08:12:38;99186.47;;;8.89;100.00
19748;BME280;10032;51.386;12.516;2024-03-25T08:15:04;99187.03;;;8.96;100.00
19748;BME280;10032;51.386;12.516;2024-03-25T08:17:30;99182.75;;;9.00;100.00
19748;BME280;10032;51.386;12.516;2024-03-25T08:19:55;99190.38;;;9.18;100.00
19748;BME280;10032;51.386;12.516;2024-03-25T08:22:20;99189.09;;;9.31;100.00
19748;BME280;10032;51.386;12.516;2024-03-25T08:24:46;99192.31;;;9.28;100.00
19748;BME280;10032;51.386;12.516;2024-03-25T08:27:12;99196.94;;;9.32;100.00
19748;BME280;10032;51.386;12.516;2024-03-25T08:29:37;99203.72;;;9.40;100.00
19748;BME280;10032;51.386;12.516;2024-03-25T08:32:03;99210.50;;;9.42;100.00
19748;BME280;10032;51.386;12.516;2024-03-25T08:34:28;99207.81;;;9.47;100.00
19748;BME280;10032;51.386;12.516;2024-03-25T08:36:54;99218.63;;;9.47;100.00
19748;BME280;10032;51.386;12.516;2024-03-25T08:39:20;99216.91;;;9.31;100.00
19748;BME280;10032;51.386;12.516;2024-03-25T08:41:46;99223.13;;;9.32;100.00
19748;BME280;10032;51.386;12.516;2024-03-25T08:44:11;99213.72;;;9.39;100.00
19748;BME280;10032;51.386;12.516;2024-03-25T08:46:38;99218.56;;;9.32;100.00
19748;BME280;10032;51.386;12.516;2024-03-25T08:49:03;99219.34;;;9.33;100.00
19748;BME280;10032;51.386;12.516;2024-03-25T08:51:29;99220.19;;;9.38;100.00
19748;BME280;10032;51.386;12.516;2024-03-25T08:53:54;99220.75;;;9.40;100.00
19748;BME280;10032;51.386;12.516;2024-03-25T08:56:19;99224.53;;;9.44;100.00
19748;BME280;10032;51.386;12.516;2024-03-25T08:58:45;99236.22;;;9.60;100.00
19748;BME280;10032;51.386;12.516;2024-03-25T09:01:10;99231.63;;;9.60;100.00
19748;BME280;10032;51.386;12.516;2024-03-25T09:03:39;99230.31;;;9.73;100.00
19748;BME280;10032;51.386;12.516;2024-03-25T09:06:06;99238.19;;;9.79;100.00
19748;BME280;10032;51.386;12.516;2024-03-25T09:08:32;99235.75;;;9.83;100.00
19748;BME280;10032;51.386;12.516;2024-03-25T09:11:17;99244.66;;;9.83;100.00
19748;BME280;10032;51.386;12.516;2024-03-25T09:13:43;99251.41;;;9.76;100.00
19748;BME280;10032;51.386;12.516;2024-03-25T09:16:08;99246.84;;;9.86;100.00
19748;BME280;10032;51.386;12.516;2024-03-25T09:18:34;99236.56;;;9.93;100.00
19748;BME280;10032;51.386;12.516;2024-03-25T09:20:59;99241.47;;;9.96;100.00
19748;BME280;10032;51.386;12.516;2024-03-25T09:23:24;99235.56;;;10.09;100.00
19748;BME280;10032;51.386;12.516;2024-03-25T09:25:53;99242.59;;;10.30;100.00
19748;BME280;10032;51.386;12.516;2024-03-25T09:28:19;99234.50;;;10.50;100.00
19748;BME280;10032;51.386;12.516;2024-03-25T09:30:45;99238.81;;;10.51;100.00
19748;BME280;10032;51.386;12.516;2024-03-25T09:33:12;99248.88;;;10.61;100.00
19748;BME280;10032;51.386;12.516;2024-03-25T09:35:39;99243.72;;;10.44;100.00
19748;BME280;10032;51.386;12.516;2024-03-25T09:38:05;99240.47;;;10.32;100.00
19748;BME280;10032;51.386;12.516;2024-03-25T09:40:31;99243.44;;;10.31;100.00
19748;BME280;10032;51.386;12.516;2024-03-25T09:42:56;99231.78;;;10.40;100.00
19748;BME280;10032;51.386;12.516;2024-03-25T09:45:25;99239.66;;;10.62;100.00
19748;BME280;10032;51.386;12.516;2024-03-25T09:47:53;99243.13;;;10.77;100.00
19748;BME280;10032;51.386;12.516;2024-03-25T09:50:19;99251.50;;;10.96;100.00
19748;BME280;10032;51.386;12.516;2024-03-25T09:52:46;99244.97;;;11.12;100.00
19748;BME280;10032;51.386;12.516;2024-03-25T09:55:12;99252.34;;;11.75;100.00
19748;BME280;10032;51.386;12.516;2024-03-25T09:57:37;99246.59;;;11.86;100.00
19748;BME280;10032;51.386;12.516;2024-03-25T10:00:05;99250.13;;;11.87;100.00
19748;BME280;10032;51.386;12.516;2024-03-25T10:02:32;99255.28;;;11.83;100.00
19748;BME280;10032;51.386;12.516;2024-03-25T10:04:59;99253.22;;;11.70;100.00
19748;BME280;10032;51.386;12.516;2024-03-25T10:07:25;99258.94;;;11.64;100.00
19748;BME280;10032;51.386;12.516;2024-03-25T10:09:51;99263.84;;;11.62;100.00
19748;BME280;10032;51.386;12.516;2024-03-25T10:12:17;99256.50;;;11.52;100.00
19748;BME280;10032;51.386;12.516;2024-03-25T10:14:43;99259.47;;;11.61;100.00
19748;BME280;10032;51.386;12.516;2024-03-25T10:17:08;99262.94;;;11.76;100.00
19748;BME280;10032;51.386;12.516;2024-03-25T10:19:34;99258.59;;;11.80;100.00
19748;BME280;10032;51.386;12.516;2024-03-25T10:22:04;99268.91;;;11.73;100.00
19748;BME280;10032;51.386;12.516;2024-03-25T10:24:43;99263.47;;;11.78;100.00
19748;BME280;10032;51.386;12.516;2024-03-25T10:27:19;99262.41;;;11.74;100.00
19748;BME280;10032;51.386;12.516;2024-03-25T10:29:54;99249.94;;;11.58;100.00
19748;BME280;10032;51.386;12.516;2024-03-25T10:32:26;99261.13;;;11.62;100.00
19748;BME280;10032;51.386;12.516;2024-03-25T10:34:53;99260.56;;;11.55;100.00
19748;BME280;10032;51.386;12.516;2024-03-25T10:37:19;99261.03;;;11.77;100.00
19748;BME280;10032;51.386;12.516;2024-03-25T10:39:49;99249.06;;;11.83;100.00
19748;BME280;10032;51.386;12.516;2024-03-25T10:42:18;99258.44;;;12.00;100.00
19748;BME280;10032;51.386;12.516;2024-03-25T10:44:44;99257.63;;;12.05;100.00
19748;BME280;10032;51.386;12.516;2024-03-25T10:47:12;99251.31;;;12.14;100.00
19748;BME280;10032;51.386;12.516;2024-03-25T10:52:14;99262.97;;;12.53;100.00
19748;BME280;10032;51.386;12.516;2024-03-25T10:54:41;99256.81;;;12.43;100.00
19748;BME280;10032;51.386;12.516;2024-03-25T10:57:09;99259.13;;;12.26;100.00
19748;BME280;10032;51.386;12.516;2024-03-25T10:59:35;99262.63;;;12.26;100.00
19748;BME280;10032;51.386;12.516;2024-03-25T11:02:07;99265.78;;;12.43;100.00
19748;BME280;10032;51.386;12.516;2024-03-25T11:04:33;99262.47;;;12.51;100.00
19748;BME280;10032;51.386;12.516;2024-03-25T11:07:15;99260.13;;;12.68;100.00
19748;BME280;10032;51.386;12.516;2024-03-25T11:09:41;99268.75;;;12.80;100.00
19748;BME280;10032;51.386;12.516;2024-03-25T11:12:10;99265.53;;;13.30;100.00
19748;BME280;10032;51.386;12.516;2024-03-25T11:14:36;99267.00;;;13.46;100.00
19748;BME280;10032;51.386;12.516;2024-03-25T11:17:02;99254.50;;;13.45;99.27
19748;BME280;10032;51.386;12.516;2024-03-25T11:19:28;99267.81;;;13.23;98.23
19748;BME280;10032;51.386;12.516;2024-03-25T11:22:06;99265.88;;;13.24;98.77
19748;BME280;10032;51.386;12.516;2024-03-25T11:24:31;99268.22;;;13.35;97.83
19748;BME280;10032;51.386;12.516;2024-03-25T11:26:57;99266.00;;;13.37;97.46
19748;BME280;10032;51.386;12.516;2024-03-25T11:29:22;99264.31;;;13.41;97.66
19748;BME280;10032;51.386;12.516;2024-03-25T11:31:52;99262.19;;;13.38;96.87
19748;BME280;10032;51.386;12.516;2024-03-25T11:34:18;99257.38;;;13.30;95.71
19748;BME280;10032;51.386;12.516;2024-03-25T11:36:43;99257.72;;;13.24;95.42
19748;BME280;10032;51.386;12.516;2024-03-25T11:39:08;99255.72;;;13.34;94.88
19748;BME280;10032;51.386;12.516;2024-03-25T11:41:41;99263.88;;;13.34;94.26
19748;BME280;10032;51.386;12.516;2024-03-25T11:44:08;99255.09;;;13.61;93.81
19748;BME280;10032;51.386;12.516;2024-03-25T11:46:36;99259.09;;;13.68;92.52
19748;BME280;10032;51.386;12.516;2024-03-25T11:49:07;99255.41;;;13.83;91.40
19748;BME280;10032;51.386;12.516;2024-03-25T11:51:33;99250.97;;;14.05;91.84
19748;BME280;10032;51.386;12.516;2024-03-25T11:53:59;99242.19;;;14.32;91.05
19748;BME280;10032;51.386;12.516;2024-03-25T11:56:26;99247.75;;;14.03;89.13
19748;BME280;10032;51.386;12.516;2024-03-25T11:58:51;99248.03;;;13.83;87.65
19748;BME280;10032;51.386;12.516;2024-03-25T12:01:17;99248.44;;;13.72;87.57
19748;BME280;10032;51.386;12.516;2024-03-25T12:03:42;99252.44;;;13.56;89.09
19748;BME280;10032;51.386;12.516;2024-03-25T12:06:08;99251.59;;;13.60;88.32
19748;BME280;10032;51.386;12.516;2024-03-25T12:08:33;99242.81;;;13.63;87.62
19748;BME280;10032;51.386;12.516;2024-03-25T12:11:02;99247.56;;;13.34;86.96
19748;BME280;10032;51.386;12.516;2024-03-25T12:13:43;99256.16;;;13.41;87.99
19748;BME280;10032;51.386;12.516;2024-03-25T12:16:09;99251.66;;;13.55;87.79
19748;BME280;10032;51.386;12.516;2024-03-25T12:18:39;99253.50;;;13.36;85.48
19748;BME280;10032;51.386;12.516;2024-03-25T12:21:06;99249.78;;;13.51;86.84
19748;BME280;10032;51.386;12.516;2024-03-25T12:23:33;99252.75;;;13.78;87.42
19748;BME280;10032;51.386;12.516;2024-03-25T12:26:02;99254.13;;;13.75;84.69
19748;BME280;10032;51.386;12.516;2024-03-25T12:28:28;99256.56;;;14.14;86.92
19748;BME280;10032;51.386;12.516;2024-03-25T12:30:56;99253.88;;;14.32;82.73
19748;BME280;10032;51.386;12.516;2024-03-25T12:33:25;99254.03;;;14.22;83.11
19748;BME280;10032;51.386;12.516;2024-03-25T12:35:52;99252.44;;;14.16;81.82
19748;BME280;10032;51.386;12.516;2024-03-25T12:38:24;99251.16;;;13.72;81.56
19748;BME280;10032;51.386;12.516;2024-03-25T12:40:50;99251.53;;;13.65;81.96
19748;BME280;10032;51.386;12.516;2024-03-25T12:43:16;99248.41;;;13.53;81.72
19748;BME280;10032;51.386;12.516;2024-03-25T12:45:42;99243.94;;;13.62;82.78
19748;BME280;10032;51.386;12.516;2024-03-25T12:48:08;99236.38;;;13.59;82.36